createdAt,value
2018-09-20T00:00:25.288Z,80.00
2018-09-20T00:01:29.689Z,79.83
2018-09-20T00:02:34.157Z,79.84
2018-09-20T00:03:38.757Z,79.62
2018-09-20T00:04:43.393Z,79.39
2018-09-20T00:05:48.003Z,79.27
2018-09-20T00:06:53.197Z,80.06
2018-09-20T00:07:57.810Z,79.61
2018-09-20T00:09:02.365Z,79.91
2018-09-20T00:10:07.225Z,79.97
2018-09-20T00:11:11.978Z,80.31
2018-09-20T00:12:16.443Z,80.04
2018-09-20T00:13:21.306Z,79.96
2018-09-20T00:14:26.339Z,79.85
2018-09-20T00:15:30.808Z,80.30
2018-09-20T00:16:36.372Z,79.93
2018-09-20T00:17:40.829Z,79.89
2018-09-20T00:18:45.269Z,80.17
2018-09-20T00:19:50.093Z,79.44
2018-09-20T00:20:54.577Z,79.80
2018-09-20T00:21:59.082Z,79.60
2018-09-20T00:23:05.392Z,79.72
2018-09-20T00:24:09.789Z,79.57
2018-09-20T00:25:14.432Z,79.91
2018-09-20T00:26:19.321Z,80.00
2018-09-20T00:27:30.239Z,79.52
2018-09-20T00:28:35.977Z,79.84
2018-09-20T00:29:40.432Z,79.79
2018-09-20T00:30:45.686Z,80.19
2018-09-20T00:31:50.128Z,80.16
2018-09-20T00:32:54.817Z,79.95
2018-09-20T00:33:59.249Z,79.68
2018-09-20T00:35:03.877Z,80.07
2018-09-20T00:36:09.306Z,79.93
2018-09-20T00:37:13.743Z,80.05
2018-09-20T00:38:18.244Z,80.09
2018-09-20T00:39:23.065Z,80.33
2018-09-20T00:40:27.522Z,80.80
2018-09-20T00:41:32.429Z,80.74
2018-09-20T00:42:38.398Z,81.10
2018-09-20T00:43:46.615Z,81.13
2018-09-20T00:44:51.864Z,81.59
2018-09-20T00:45:56.336Z,81.50
2018-09-20T00:47:03.706Z,81.72
2018-09-20T00:48:08.127Z,81.48
2018-09-20T00:49:12.584Z,81.73
2018-09-20T00:50:17.029Z,81.70
2018-09-20T00:51:21.866Z,81.68
2018-09-20T00:52:26.358Z,81.75
2018-09-20T00:53:30.786Z,81.86
2018-09-20T00:54:35.214Z,82.04
2018-09-20T00:55:39.629Z,82.16
2018-09-20T00:56:44.149Z,82.34
2018-09-20T00:57:49.565Z,82.28
2018-09-20T00:58:54.155Z,82.39
2018-09-20T00:59:58.617Z,82.48
2018-09-20T01:01:03.034Z,82.34
2018-09-20T01:02:07.489Z,82.58
2018-09-20T01:03:11.983Z,83.00
2018-09-20T01:04:18.005Z,83.15
2018-09-20T01:05:22.725Z,83.38
2018-09-20T01:06:27.835Z,83.72
2018-09-20T01:07:32.477Z,83.80
2018-09-20T01:08:36.987Z,84.06
2018-09-20T01:09:41.429Z,84.80
2018-09-20T01:10:46.283Z,84.86
2018-09-20T01:11:52.030Z,84.99
2018-09-20T01:12:57.305Z,85.07
2018-09-20T01:14:01.784Z,85.17
2018-09-20T01:15:06.795Z,84.82
2018-09-20T01:16:11.267Z,85.07
2018-09-20T01:17:16.823Z,85.09
2018-09-20T01:18:22.178Z,85.28
2018-09-20T01:19:26.957Z,85.02
2018-09-20T01:20:31.426Z,85.25
2018-09-20T01:21:37.257Z,85.22
2018-09-20T01:22:41.704Z,85.23
2018-09-20T01:23:47.657Z,85.29
2018-09-20T01:24:52.155Z,85.36
2018-09-20T01:25:56.647Z,85.09
2018-09-20T01:27:01.126Z,85.01
2018-09-20T01:28:05.631Z,85.10
2018-09-20T01:29:10.092Z,84.82
2018-09-20T01:30:15.123Z,84.84
2018-09-20T01:31:19.598Z,84.81
2018-09-20T01:32:24.110Z,84.80
2018-09-20T01:33:29.256Z,84.33
2018-09-20T01:34:33.732Z,84.68
2018-09-20T01:35:38.242Z,84.52
2018-09-20T01:36:43.320Z,84.53
2018-09-20T01:37:47.791Z,84.69
2018-09-20T01:38:52.250Z,84.47
2018-09-20T01:39:56.734Z,84.74
2018-09-20T01:41:01.241Z,84.73
2018-09-20T01:42:05.749Z,84.49
2018-09-20T01:43:10.530Z,84.51
2018-09-20T01:44:15.015Z,84.66
2018-09-20T01:45:19.601Z,84.45
2018-09-20T01:46:25.119Z,84.71
2018-09-20T01:47:29.736Z,84.55
2018-09-20T01:48:34.393Z,84.67
2018-09-20T01:49:40.893Z,84.75
2018-09-20T01:50:46.129Z,84.40
2018-09-20T01:51:50.546Z,84.39
2018-09-20T01:52:55.883Z,84.46
2018-09-20T01:54:00.313Z,84.39
2018-09-20T01:55:04.755Z,84.23
2018-09-20T01:56:14.302Z,84.19
2018-09-20T01:57:18.906Z,84.38
2018-09-20T01:58:23.408Z,84.31
2018-09-20T01:59:27.873Z,84.29
2018-09-20T02:00:32.375Z,84.52
2018-09-20T02:01:36.830Z,84.42
2018-09-20T02:02:42.109Z,84.54
2018-09-20T02:03:48.075Z,84.52
2018-09-20T02:04:52.758Z,84.59
2018-09-20T02:05:57.271Z,84.86
2018-09-20T02:07:01.763Z,84.75
2018-09-20T02:08:06.385Z,84.87
2018-09-20T02:09:11.738Z,84.93
2018-09-20T02:10:16.219Z,85.18
2018-09-20T02:11:21.200Z,85.19
2018-09-20T02:12:25.655Z,85.07
2018-09-20T02:13:30.102Z,85.19
2018-09-20T02:14:34.608Z,85.33
2018-09-20T02:15:39.504Z,85.18
2018-09-20T02:16:44.040Z,85.33
2018-09-20T02:17:48.528Z,85.32
2018-09-20T02:18:52.989Z,85.42
2018-09-20T02:19:57.416Z,85.59
2018-09-20T02:21:01.876Z,85.74
2018-09-20T02:22:06.617Z,85.65
2018-09-20T02:23:11.103Z,85.74
2018-09-20T02:24:15.568Z,86.17
2018-09-20T02:25:20.151Z,86.03
2018-09-20T02:26:24.665Z,86.01
2018-09-20T02:27:29.108Z,85.87
2018-09-20T02:28:33.859Z,85.80
2018-09-20T02:29:38.731Z,85.58
2018-09-20T02:30:43.190Z,85.59
2018-09-20T02:31:47.700Z,85.57
2018-09-20T02:32:52.129Z,85.44
2018-09-20T02:33:56.544Z,85.59
2018-09-20T02:35:01.270Z,85.43
2018-09-20T02:36:05.783Z,85.49
2018-09-20T02:37:10.246Z,85.42
2018-09-20T02:38:14.685Z,85.50
2018-09-20T02:39:19.170Z,85.54
2018-09-20T02:40:23.657Z,85.40
2018-09-20T02:41:28.425Z,85.56
2018-09-20T02:42:32.927Z,85.43
2018-09-20T02:43:38.647Z,85.37
2018-09-20T02:44:43.087Z,85.53
2018-09-20T02:45:47.633Z,85.46
2018-09-20T02:46:52.170Z,85.41
2018-09-20T02:47:57.210Z,85.33
2018-09-20T02:49:01.659Z,85.22
2018-09-20T02:50:06.165Z,85.24
2018-09-20T02:51:11.651Z,84.96
2018-09-20T02:52:16.526Z,84.96
2018-09-20T02:53:21.962Z,84.89
2018-09-20T02:54:26.787Z,85.27
2018-09-20T02:55:32.914Z,85.53
2018-09-20T02:56:37.403Z,85.59
2018-09-20T02:57:42.333Z,85.83
2018-09-20T02:58:49.267Z,85.88
2018-09-20T02:59:54.601Z,85.80
2018-09-20T03:01:01.092Z,85.82
2018-09-20T03:02:07.756Z,85.68
2018-09-20T03:03:13.325Z,85.67
2018-09-20T03:04:20.527Z,85.57
2018-09-20T03:05:26.146Z,85.50
2018-09-20T03:06:31.342Z,85.47
2018-09-20T03:07:37.247Z,85.44
2018-09-20T03:08:43.229Z,85.69
2018-09-20T03:09:49.738Z,85.86
2018-09-20T03:10:58.137Z,85.85
2018-09-20T03:12:04.044Z,85.90
2018-09-20T03:13:10.566Z,86.05
2018-09-20T03:14:16.042Z,86.22
2018-09-20T03:15:22.946Z,85.96
2018-09-20T03:16:30.778Z,86.00
2018-09-20T03:17:35.358Z,85.72
2018-09-20T03:18:39.872Z,85.84
2018-09-20T03:19:44.501Z,85.74
2018-09-20T03:20:49.333Z,85.70
2018-09-20T03:21:53.742Z,85.85
2018-09-20T03:22:58.218Z,86.02
2018-09-20T03:24:02.727Z,86.09
2018-09-20T03:25:07.193Z,86.21
2018-09-20T03:26:12.285Z,86.43
2018-09-20T03:27:17.327Z,86.32
2018-09-20T03:28:21.857Z,86.37
2018-09-20T03:29:26.374Z,86.53
2018-09-20T03:30:31.400Z,86.54
2018-09-20T03:31:35.784Z,86.50
2018-09-20T03:32:40.828Z,86.56
2018-09-20T03:33:47.594Z,86.39
2018-09-20T03:34:55.472Z,86.29
2018-09-20T03:36:00.453Z,86.64
2018-09-20T03:37:09.789Z,86.52
2018-09-20T03:38:15.509Z,86.57
2018-09-20T03:39:21.945Z,86.66
2018-09-20T03:40:27.575Z,86.63
2018-09-20T03:41:32.639Z,86.39
2018-09-20T03:42:37.069Z,86.53
2018-09-20T03:43:42.248Z,86.59
2018-09-20T03:44:49.499Z,86.66
2018-09-20T03:45:54.367Z,86.72
2018-09-20T03:46:58.822Z,86.77
2018-09-20T03:48:03.298Z,86.73
2018-09-20T03:49:07.735Z,86.89
2018-09-20T03:50:12.969Z,86.57
2018-09-20T03:51:17.998Z,86.60
2018-09-20T03:52:23.946Z,86.44
2018-09-20T03:53:28.597Z,86.30
2018-09-20T03:54:34.007Z,86.11
2018-09-20T03:55:39.281Z,86.20
2018-09-20T03:56:43.718Z,86.14
2018-09-20T03:57:48.179Z,86.14
2018-09-20T03:58:52.989Z,86.08
2018-09-20T03:59:57.545Z,86.31
2018-09-20T04:01:02.207Z,86.24
2018-09-20T04:02:07.315Z,86.43
2018-09-20T04:03:11.834Z,86.83
2018-09-20T04:04:16.266Z,86.75
2018-09-20T04:05:21.774Z,87.09
2018-09-20T04:06:29.168Z,87.01
2018-09-20T04:07:33.781Z,87.08
2018-09-20T04:08:38.288Z,87.19
2018-09-20T04:09:42.891Z,86.85
2018-09-20T04:10:47.798Z,87.09
2018-09-20T04:11:52.254Z,87.08
2018-09-20T04:12:58.204Z,86.90
2018-09-20T04:14:02.637Z,86.82
2018-09-20T04:15:08.316Z,86.94
2018-09-20T04:16:14.585Z,87.01
2018-09-20T04:17:19.354Z,87.04
2018-09-20T04:18:23.815Z,87.19
2018-09-20T04:19:28.348Z,87.04
2018-09-20T04:20:32.799Z,87.17
2018-09-20T04:21:37.282Z,87.20
2018-09-20T04:22:41.800Z,87.07
2018-09-20T04:23:46.633Z,87.21
2018-09-20T04:24:51.126Z,87.46
2018-09-20T04:25:55.564Z,87.36
2018-09-20T04:27:00.010Z,87.69
2018-09-20T04:28:04.467Z,87.88
2018-09-20T04:29:09.763Z,88.10
2018-09-20T04:30:14.569Z,88.22
2018-09-20T04:31:19.013Z,88.18
2018-09-20T04:32:23.435Z,88.29
2018-09-20T04:33:27.999Z,87.99
2018-09-20T04:34:32.523Z,87.92
2018-09-20T04:35:36.971Z,88.08
2018-09-20T04:36:41.823Z,87.89
2018-09-20T04:37:46.276Z,87.67
2018-09-20T04:38:50.714Z,87.80
2018-09-20T04:39:55.193Z,87.57
2018-09-20T04:40:59.638Z,87.72
2018-09-20T04:42:04.138Z,87.94
2018-09-20T04:43:09.133Z,87.68
2018-09-20T04:44:13.897Z,87.67
2018-09-20T04:45:18.347Z,87.88
2018-09-20T04:46:23.766Z,87.44
2018-09-20T04:47:28.324Z,87.70
2018-09-20T04:48:33.109Z,87.82
2018-09-20T04:49:37.930Z,87.49
2018-09-20T04:50:42.849Z,87.86
2018-09-20T04:51:47.517Z,87.85
2018-09-20T04:52:51.999Z,87.43
2018-09-20T04:53:56.475Z,87.79
2018-09-20T04:55:02.709Z,87.69
2018-09-20T04:56:07.497Z,87.75
2018-09-20T04:57:11.983Z,87.68
2018-09-20T04:58:16.495Z,87.88
2018-09-20T04:59:27.233Z,88.12
2018-09-20T05:00:32.701Z,87.80
2018-09-20T05:01:38.668Z,87.30
2018-09-20T05:02:43.696Z,87.36
2018-09-20T05:03:48.182Z,87.31
2018-09-20T05:04:54.330Z,87.25
2018-09-20T05:05:59.990Z,87.05
2018-09-20T05:07:04.644Z,87.40
2018-09-20T05:08:11.748Z,87.60
2018-09-20T05:09:17.709Z,87.45
2018-09-20T05:10:22.172Z,87.81
2018-09-20T05:11:27.196Z,87.71
2018-09-20T05:12:31.725Z,87.81
2018-09-20T05:13:36.645Z,87.34
2018-09-20T05:14:41.753Z,87.28
2018-09-20T05:15:46.962Z,87.56
2018-09-20T05:16:51.401Z,87.11
2018-09-20T05:17:56.823Z,87.31
2018-09-20T05:19:03.365Z,87.14
2018-09-20T05:20:07.873Z,86.94
2018-09-20T05:21:13.252Z,86.83
2018-09-20T05:22:18.985Z,86.67
2018-09-20T05:23:24.053Z,86.63
2018-09-20T05:24:29.191Z,86.99
2018-09-20T05:25:34.709Z,86.96
2018-09-20T05:26:41.208Z,87.12
2018-09-20T05:27:45.671Z,86.90
2018-09-20T05:28:56.507Z,86.92
2018-09-20T05:30:00.985Z,86.67
2018-09-20T05:31:07.007Z,86.62
2018-09-20T05:46:16.683Z,86.95
2018-09-20T05:47:22.419Z,86.50
2018-09-20T05:48:26.984Z,86.58
2018-09-20T05:49:31.505Z,86.49
2018-09-20T05:50:35.982Z,86.64
2018-09-20T05:51:40.803Z,86.34
2018-09-20T05:52:45.344Z,86.24
2018-09-20T05:53:49.872Z,86.14
2018-09-20T05:54:54.333Z,86.32
2018-09-20T05:55:58.853Z,85.91
2018-09-20T05:57:03.745Z,85.93
2018-09-20T05:58:09.335Z,86.15
2018-09-20T05:59:13.902Z,86.16
2018-09-20T06:00:18.775Z,86.02
2018-09-20T06:01:23.261Z,85.61
2018-09-20T06:02:28.277Z,85.68
2018-09-20T06:03:32.779Z,85.26
2018-09-20T06:04:37.566Z,84.89
2018-09-20T06:05:42.056Z,84.62
2018-09-20T06:06:46.569Z,84.44
2018-09-20T06:07:50.999Z,83.45
2018-09-20T06:08:55.552Z,83.17
2018-09-20T06:10:00.315Z,83.48
2018-09-20T06:11:05.190Z,83.60
2018-09-20T06:12:09.827Z,83.50
2018-09-20T06:13:14.324Z,83.27
2018-09-20T06:14:18.883Z,83.28
2018-09-20T06:15:23.437Z,82.90
2018-09-20T06:16:27.942Z,82.51
2018-09-20T06:17:32.716Z,82.90
2018-09-20T06:18:37.271Z,83.02
2018-09-20T06:19:42.276Z,83.46
2018-09-20T06:20:50.312Z,83.55
2018-09-20T06:21:55.370Z,83.45
2018-09-20T06:22:59.982Z,83.17
2018-09-20T06:24:04.932Z,83.28
2018-09-20T06:25:09.734Z,83.43
2018-09-20T06:26:14.268Z,83.46
2018-09-20T06:27:19.412Z,83.59
2018-09-20T06:28:27.522Z,82.97
2018-09-20T06:29:32.076Z,82.63
2018-09-20T06:30:37.810Z,81.72
2018-09-20T06:31:43.361Z,81.26
2018-09-20T06:32:47.948Z,80.82
2018-09-20T06:33:52.614Z,80.96
2018-09-20T06:34:57.058Z,80.75
2018-09-20T06:36:02.283Z,81.01
2018-09-20T06:37:07.381Z,81.11
2018-09-20T06:38:11.931Z,80.85
2018-09-20T06:39:16.412Z,80.81
2018-09-20T06:40:21.229Z,79.76
2018-09-20T06:41:26.395Z,78.09
2018-09-20T06:42:31.672Z,77.13
2018-09-20T06:43:38.353Z,76.22
2018-09-20T06:44:43.510Z,75.00
2018-09-20T06:45:48.406Z,75.16
2018-09-20T06:46:52.971Z,74.46
2018-09-20T06:47:57.670Z,74.21
2018-09-20T06:49:02.262Z,73.71
2018-09-20T06:50:07.394Z,73.10
2018-09-20T06:51:11.913Z,71.61
2018-09-20T06:52:16.408Z,70.28
2018-09-20T06:53:20.923Z,69.75
2018-09-20T06:54:25.363Z,68.28
2018-09-20T06:55:30.464Z,67.48
2018-09-20T06:56:35.402Z,66.32
2018-09-20T06:57:39.953Z,64.61
2018-09-20T06:58:44.399Z,62.82
2018-09-20T06:59:48.922Z,60.53
2018-09-20T07:00:56.596Z,60.94
2018-09-20T07:02:01.573Z,58.64
2018-09-20T07:03:06.234Z,57.86
2018-09-20T07:04:10.731Z,57.46
2018-09-20T07:05:15.279Z,56.72
2018-09-20T07:06:21.139Z,55.69
2018-09-20T07:07:25.875Z,54.94
2018-09-20T07:08:30.726Z,55.14
2018-09-20T07:09:36.805Z,54.84
2018-09-20T07:10:42.911Z,53.76
2018-09-20T07:11:47.871Z,53.18
2018-09-20T07:12:55.497Z,52.77
2018-09-20T07:14:01.971Z,52.94
2018-09-20T07:15:08.856Z,51.21
2018-09-20T07:16:14.314Z,52.03
2018-09-20T07:17:19.116Z,51.35
2018-09-20T07:18:24.934Z,52.06
2018-09-20T07:19:30.845Z,51.21
2018-09-20T07:20:35.777Z,48.63
2018-09-20T07:21:40.726Z,49.44
2018-09-20T07:22:46.559Z,49.70
2018-09-20T07:23:56.186Z,50.98
2018-09-20T07:25:01.227Z,50.61
2018-09-20T07:26:06.666Z,50.73
2018-09-20T07:27:12.132Z,50.57
2018-09-20T07:28:16.916Z,50.51
2018-09-20T07:29:24.137Z,50.32
2018-09-20T07:30:30.623Z,51.00
2018-09-20T07:31:35.736Z,50.09
2018-09-20T07:32:40.521Z,49.09
2018-09-20T07:33:45.565Z,48.60
2018-09-20T07:34:50.765Z,49.32
2018-09-20T07:35:56.935Z,49.63
2018-09-20T07:37:01.426Z,49.08
2018-09-20T07:38:06.032Z,48.20
2018-09-20T07:39:11.320Z,47.75
2018-09-20T07:40:16.343Z,47.23
2018-09-20T07:41:21.570Z,46.65
2018-09-20T07:42:26.902Z,47.19
2018-09-20T07:43:31.584Z,47.38
2018-09-20T07:44:36.188Z,46.06
2018-09-20T07:45:40.736Z,45.95
2018-09-20T07:46:45.609Z,45.09
2018-09-20T07:47:50.645Z,45.21
2018-09-20T07:48:55.423Z,43.29
2018-09-20T07:50:00.533Z,43.71
2018-09-20T07:51:05.742Z,43.17
2018-09-20T07:52:11.323Z,42.99
2018-09-20T07:53:17.615Z,43.14
2018-09-20T07:54:24.070Z,42.29
2018-09-20T07:55:28.531Z,41.55
2018-09-20T07:56:33.358Z,40.62
2018-09-20T07:57:38.185Z,40.52
2018-09-20T07:58:43.043Z,40.47
2018-09-20T07:59:49.503Z,39.56
2018-09-20T08:00:55.290Z,39.06
2018-09-20T08:02:00.398Z,38.86
2018-09-20T08:03:05.855Z,38.56
2018-09-20T08:04:11.224Z,38.44
2018-09-20T08:05:16.438Z,38.30
2018-09-20T08:06:23.626Z,38.17
2018-09-20T08:07:28.613Z,38.38
2018-09-20T08:08:34.106Z,38.64
2018-09-20T08:09:40.457Z,38.92
2018-09-20T08:10:44.946Z,37.79
2018-09-20T08:11:50.632Z,37.13
2018-09-20T08:12:55.599Z,38.14
2018-09-20T08:14:00.281Z,37.66
2018-09-20T08:15:05.535Z,37.48
2018-09-20T08:16:10.589Z,36.52
2018-09-20T08:17:15.132Z,35.14
2018-09-20T08:18:20.674Z,35.01
2018-09-20T08:19:27.248Z,34.46
2018-09-20T08:20:31.962Z,34.04
2018-09-20T08:21:36.689Z,33.14
2018-09-20T08:22:41.249Z,32.51
2018-09-20T08:23:48.536Z,31.57
2018-09-20T08:24:54.097Z,32.03
2018-09-20T08:26:02.432Z,31.48
2018-09-20T08:27:07.100Z,34.49
2018-09-20T08:28:14.443Z,35.73
2018-09-20T08:29:18.968Z,36.31
2018-09-20T08:30:23.544Z,37.36
2018-09-20T08:31:28.274Z,35.56
2018-09-20T08:32:33.441Z,35.73
2018-09-20T08:33:38.462Z,34.23
2018-09-20T08:34:43.063Z,34.49
2018-09-20T08:35:48.430Z,33.31
2018-09-20T08:36:52.936Z,34.61
2018-09-20T08:38:01.356Z,36.08
2018-09-20T08:39:07.898Z,34.54
2018-09-20T08:40:13.007Z,33.82
2018-09-20T08:41:17.873Z,33.82
2018-09-20T08:42:23.180Z,32.53
2018-09-20T08:43:28.283Z,33.64
2018-09-20T08:44:33.527Z,34.02
2018-09-20T08:45:38.354Z,33.73
2018-09-20T08:46:43.001Z,34.34
2018-09-20T08:47:47.485Z,32.25
2018-09-20T08:48:52.047Z,31.03
2018-09-20T08:49:56.607Z,31.57
2018-09-20T08:51:01.674Z,30.25
2018-09-20T08:52:06.256Z,31.86
2018-09-20T08:53:10.847Z,31.81
2018-09-20T08:54:15.548Z,30.97
2018-09-20T08:55:20.705Z,29.91
2018-09-20T08:56:25.768Z,29.72
2018-09-20T08:57:35.069Z,28.94
2018-09-20T08:58:39.917Z,29.84
2018-09-20T08:59:45.016Z,29.10
2018-09-20T09:00:49.832Z,31.01
2018-09-20T09:01:55.868Z,30.96
2018-09-20T09:03:00.370Z,34.08
2018-09-20T09:04:08.456Z,36.40
2018-09-20T09:05:13.873Z,39.60
2018-09-20T09:06:18.927Z,42.26
2018-09-20T09:07:24.843Z,43.86
2018-09-20T09:08:30.681Z,46.43
2018-09-20T09:09:44.371Z,46.81
2018-09-20T09:10:50.444Z,46.12
2018-09-20T09:11:54.972Z,44.98
2018-09-20T09:12:59.495Z,41.28
2018-09-20T09:14:03.984Z,41.98
2018-09-20T09:15:08.453Z,42.74
2018-09-20T09:16:13.905Z,44.49
2018-09-20T09:17:19.356Z,43.57
2018-09-20T09:18:24.218Z,44.20
2018-09-20T09:19:28.932Z,43.46
2018-09-20T09:20:33.645Z,43.64
2018-09-20T09:21:41.880Z,40.31
2018-09-20T09:22:46.938Z,40.09
2018-09-20T09:23:51.542Z,41.00
2018-09-20T09:24:56.520Z,40.64
2018-09-20T09:26:01.451Z,38.96
2018-09-20T09:27:06.544Z,39.97
2018-09-20T09:28:13.803Z,42.75
2018-09-20T09:29:19.924Z,45.05
2018-09-20T09:30:25.565Z,42.55
2018-09-20T09:31:31.047Z,43.49
2018-09-20T09:32:37.346Z,46.30
2018-09-20T09:33:41.954Z,48.07
2018-09-20T09:34:46.967Z,47.45
2018-09-20T09:35:59.128Z,44.78
2018-09-20T09:37:03.587Z,46.21
2018-09-20T09:38:08.586Z,47.43
2018-09-20T09:39:14.432Z,46.22
2018-09-20T09:40:19.202Z,47.16
2018-09-20T09:41:23.780Z,47.59
2018-09-20T09:42:28.368Z,46.94
2018-09-20T09:43:32.873Z,45.83
2018-09-20T09:44:39.037Z,45.14
2018-09-20T09:45:45.383Z,47.29
2018-09-20T09:46:50.088Z,44.67
2018-09-20T09:47:55.610Z,43.28
2018-09-20T09:49:00.695Z,44.24
2018-09-20T09:50:05.154Z,44.76
2018-09-20T09:51:09.795Z,42.09
2018-09-20T09:52:14.418Z,41.32
2018-09-20T09:53:19.103Z,42.50
2018-09-20T09:54:29.165Z,41.84
2018-09-20T09:55:33.795Z,43.43
2018-09-20T09:56:38.633Z,47.21
2018-09-20T09:57:44.779Z,47.49
2018-09-20T09:58:51.938Z,46.98
2018-09-20T09:59:56.474Z,47.09
2018-09-20T10:01:01.556Z,44.04
2018-09-20T10:02:06.830Z,43.39
2018-09-20T10:03:16.957Z,43.60
2018-09-20T10:04:22.342Z,41.51
2018-09-20T10:05:28.130Z,41.67
2018-09-20T10:06:33.183Z,41.03
2018-09-20T10:07:38.031Z,41.58
2018-09-20T10:08:42.618Z,41.85
2018-09-20T10:09:47.703Z,41.17
2018-09-20T10:10:53.800Z,40.11
2018-09-20T10:11:58.520Z,39.56
2018-09-20T10:13:03.108Z,41.01
2018-09-20T10:14:08.463Z,43.64
2018-09-20T10:15:13.590Z,47.64
2018-09-20T10:16:19.767Z,51.50
2018-09-20T10:17:24.218Z,52.93
2018-09-20T10:18:29.624Z,52.45
2018-09-20T10:19:34.358Z,52.37
2018-09-20T10:20:39.431Z,51.37
2018-09-20T10:21:44.715Z,52.13
2018-09-20T10:22:56.430Z,52.53
2018-09-20T10:24:02.697Z,52.59
2018-09-20T10:25:07.199Z,53.36
2018-09-20T10:26:11.929Z,52.58
2018-09-20T10:27:18.984Z,51.26
2018-09-20T10:28:25.517Z,50.68
2018-09-20T10:29:30.786Z,51.46
2018-09-20T10:30:36.385Z,52.75
2018-09-20T10:31:41.234Z,52.65
2018-09-20T10:45:07.654Z,49.91
2018-09-20T10:46:12.550Z,49.95
2018-09-20T10:47:18.835Z,49.74
2018-09-20T10:48:30.231Z,49.65
2018-09-20T10:49:38.421Z,48.67
2018-09-20T10:50:44.037Z,49.27
2018-09-20T10:51:48.685Z,50.38
2018-09-20T10:52:53.316Z,51.01
2018-09-20T10:53:58.487Z,50.65
2018-09-20T10:55:03.834Z,50.31
2018-09-20T10:56:08.969Z,50.51
2018-09-20T10:57:16.852Z,49.49
2018-09-20T10:58:21.325Z,49.40
2018-09-20T10:59:25.842Z,48.78
2018-09-20T11:00:30.635Z,48.91
2018-09-20T11:01:35.280Z,48.26
2018-09-20T11:02:39.919Z,47.34
2018-09-20T11:03:44.832Z,46.71
2018-09-20T11:04:50.275Z,46.26
2018-09-20T11:05:55.799Z,45.42
2018-09-20T11:07:02.335Z,44.85
2018-09-20T11:08:07.583Z,45.68
2018-09-20T11:09:13.029Z,45.87
2018-09-20T11:10:18.105Z,46.52
2018-09-20T11:11:22.654Z,46.91
2018-09-20T11:12:27.547Z,46.33
2018-09-20T11:13:33.098Z,44.85
2018-09-20T11:14:37.719Z,43.73
2018-09-20T11:15:43.766Z,44.13
2018-09-20T11:16:48.767Z,44.25
2018-09-20T11:17:53.265Z,44.05
2018-09-20T11:18:57.695Z,42.88
2018-09-20T11:20:02.300Z,43.99
2018-09-20T11:21:07.992Z,44.41
2018-09-20T11:22:12.468Z,45.11
2018-09-20T11:23:18.873Z,46.14
2018-09-20T11:24:23.607Z,46.62
2018-09-20T11:25:28.071Z,46.71
2018-09-20T11:26:33.754Z,46.21
2018-09-20T11:27:38.239Z,45.60
2018-09-20T11:28:42.777Z,45.28
2018-09-20T11:29:48.335Z,45.63
2018-09-20T11:30:53.926Z,44.91
2018-09-20T11:31:59.282Z,45.39
2018-09-20T11:33:05.827Z,45.53
2018-09-20T15:37:29.880Z,34.78
2018-09-20T15:38:36.277Z,34.46
2018-09-20T15:39:41.725Z,34.66
2018-09-20T15:40:48.997Z,33.95
2018-09-20T15:41:54.415Z,34.71
2018-09-20T15:42:59.945Z,35.43
2018-09-20T15:44:07.529Z,34.62
2018-09-20T15:45:13.642Z,34.89
2018-09-20T15:46:21.876Z,34.70
2018-09-20T15:47:28.323Z,35.22
2018-09-20T15:48:36.361Z,36.07
2018-09-20T15:51:00.660Z,35.73
2018-09-20T15:52:06.577Z,35.67
2018-09-20T15:53:14.291Z,35.82
2018-09-20T15:54:19.364Z,35.42
2018-09-20T15:55:24.177Z,35.49
2018-09-20T15:56:31.275Z,35.36
2018-09-20T15:57:43.580Z,34.21
2018-09-20T15:58:50.083Z,34.54
2018-09-20T15:59:54.896Z,34.94
2018-09-20T16:01:00.633Z,34.28
2018-09-20T16:02:05.812Z,35.39
2018-09-20T16:03:11.570Z,34.97
2018-09-20T16:04:16.827Z,34.64
2018-09-20T16:05:22.012Z,34.80
2018-09-20T16:06:27.843Z,36.04
2018-09-20T16:07:32.833Z,34.95
2018-09-20T16:08:38.038Z,35.56
2018-09-20T16:09:45.390Z,35.63
2018-09-20T16:10:50.463Z,35.86
2018-09-20T16:11:58.433Z,35.75
2018-09-20T16:13:04.064Z,35.85
2018-09-20T16:14:08.827Z,35.55
2018-09-20T16:15:14.075Z,36.21
2018-09-20T16:16:18.900Z,35.86
2018-09-20T16:17:23.558Z,35.95
2018-09-20T16:18:29.388Z,35.79
2018-09-20T16:19:35.089Z,36.08
2018-09-20T16:20:40.735Z,36.15
2018-09-20T16:21:46.657Z,36.14
2018-09-20T16:22:51.945Z,36.58
2018-09-20T16:23:56.502Z,36.59
2018-09-20T16:25:01.116Z,36.50
2018-09-20T16:26:06.180Z,36.59
2018-09-20T16:27:10.867Z,36.43
2018-09-20T16:28:22.175Z,36.70
2018-09-20T16:29:36.798Z,36.60
2018-09-20T16:45:17.628Z,38.64
2018-09-20T16:46:22.848Z,38.31
2018-09-20T16:47:27.570Z,39.16
2018-09-20T16:48:33.272Z,39.14
2018-09-20T16:49:38.708Z,39.20
2018-09-20T16:50:43.942Z,39.22
2018-09-20T16:51:48.559Z,39.32
2018-09-20T16:52:53.223Z,39.16
2018-09-20T16:53:58.419Z,38.99
2018-09-20T16:55:02.993Z,39.70
2018-09-20T16:56:10.580Z,39.67
2018-09-20T16:57:15.198Z,40.38
2018-09-20T16:58:19.861Z,39.42
2018-09-20T16:59:24.481Z,39.58
2018-09-20T17:00:29.360Z,39.36
2018-09-20T17:01:34.214Z,39.24
2018-09-20T17:02:40.660Z,39.48
2018-09-20T17:03:47.212Z,39.45
2018-09-20T17:04:52.344Z,39.91
2018-09-20T17:05:56.999Z,40.22
2018-09-20T17:07:02.382Z,39.59
2018-09-20T17:08:08.550Z,40.66
2018-09-20T17:09:14.164Z,40.32
2018-09-20T17:10:18.818Z,40.31
2018-09-20T17:11:23.337Z,40.88
2018-09-20T17:12:28.814Z,40.56
2018-09-20T17:13:33.314Z,39.85
2018-09-20T17:14:39.167Z,40.21
2018-09-20T17:15:44.370Z,40.70
2018-09-20T17:16:49.177Z,41.40
2018-09-20T17:17:53.705Z,41.21
2018-09-20T17:18:59.235Z,41.50
2018-09-20T17:20:04.988Z,40.70
2018-09-20T17:21:12.406Z,41.24
2018-09-20T17:22:18.530Z,40.97
2018-09-20T17:23:23.839Z,41.25
2018-09-20T17:24:29.285Z,41.25
2018-09-20T17:25:35.011Z,40.80
2018-09-20T17:26:40.582Z,40.81
2018-09-20T17:27:45.543Z,40.47
2018-09-20T17:28:50.136Z,41.88
2018-09-20T17:29:55.202Z,41.67
2018-09-20T17:30:59.721Z,40.96
2018-09-20T17:32:04.310Z,40.82
2018-09-20T17:33:09.788Z,41.02
2018-09-20T17:34:16.355Z,40.64
2018-09-20T17:35:23.465Z,41.00
2018-09-20T17:36:29.440Z,40.82
2018-09-20T17:37:35.197Z,42.23
2018-09-20T17:38:40.958Z,40.80
2018-09-20T17:39:46.457Z,41.24
2018-09-20T17:40:56.217Z,41.31
2018-09-20T17:42:01.796Z,41.88
2018-09-20T17:43:12.562Z,41.06
2018-09-20T17:44:17.210Z,41.94
2018-09-20T17:45:21.803Z,40.70
2018-09-20T17:46:28.363Z,41.72
2018-09-20T17:47:35.587Z,40.70
2018-09-20T17:48:45.303Z,40.40
2018-09-20T17:49:49.821Z,40.90
2018-09-20T17:50:55.551Z,40.00
2018-09-20T17:52:01.301Z,41.15
2018-09-20T17:53:05.904Z,41.36
2018-09-20T17:54:11.940Z,41.11
2018-09-20T17:55:17.082Z,40.63
2018-09-20T17:56:22.181Z,40.92
2018-09-20T17:57:28.454Z,41.19
2018-09-20T17:58:33.141Z,40.83
2018-09-20T17:59:38.615Z,41.60
2018-09-20T18:00:43.582Z,41.42
2018-09-20T18:01:48.593Z,41.08
2018-09-20T18:02:54.585Z,41.49
2018-09-20T18:04:01.295Z,41.25
2018-09-20T18:05:05.769Z,41.97
2018-09-20T18:06:10.347Z,42.02
2018-09-20T18:07:16.163Z,41.66
2018-09-20T18:08:25.410Z,41.73
2018-09-20T18:09:31.652Z,42.11
2018-09-20T18:10:40.195Z,41.40
2018-09-20T18:11:46.013Z,41.80
2018-09-20T18:12:51.240Z,41.27
2018-09-20T18:13:58.168Z,41.26
2018-09-20T18:15:06.851Z,41.41
2018-09-20T18:16:13.598Z,41.49
2018-09-20T18:17:18.675Z,42.23
2018-09-20T18:18:24.818Z,41.05
2018-09-20T18:19:30.429Z,41.44
2018-09-20T18:20:36.989Z,41.88
2018-09-20T18:21:41.516Z,42.51
2018-09-20T18:22:46.811Z,41.65
2018-09-20T18:23:51.314Z,42.39
2018-09-20T18:24:56.963Z,41.35
2018-09-20T18:26:02.103Z,41.68
2018-09-20T18:27:07.646Z,41.07
2018-09-20T18:28:13.199Z,41.64
2018-09-20T18:29:19.555Z,40.90
2018-09-20T18:30:24.990Z,41.98
2018-09-20T18:31:29.504Z,41.19
2018-09-20T18:32:35.270Z,41.24
2018-09-20T18:33:40.173Z,42.39
2018-09-20T18:34:45.619Z,41.60
2018-09-20T18:35:50.125Z,41.58
2018-09-20T18:36:54.622Z,42.00
2018-09-20T18:38:01.781Z,42.45
2018-09-20T18:39:08.177Z,42.43
2018-09-20T18:40:13.835Z,42.91
2018-09-20T18:41:20.254Z,42.92
2018-09-20T18:42:27.939Z,41.98
2018-09-20T18:43:32.772Z,42.34
2018-09-20T18:44:39.346Z,42.17
2018-09-20T18:45:45.559Z,100.00
2018-09-20T18:46:51.107Z,42.55